Time;durP1;ratioP1;P1;durP2;ratioP2;P2;SDS_P1;SDS_P2;PMS_P1;PMS_P2;Temp;Humidity;BMP_temperature;BMP_pressure;BME280_temperature;BME280_humidity;BME280_pressure;Samples;Min_cycle;Max_cycle;Signal;HPM_P1;HPM_P2
2021/03/22 00:00:34;;;;;;;27.32;16.93;;;;;;;3.99;72.82;100901.30;1854696;77;21604;-78
2021/03/22 00:03:02;;;;;;;24.77;16.20;;;;;;;4.01;73.14;100897.78;1856533;77;21505;-76
2021/03/22 00:09:30;;;;;;;30.97;18.62;;;;;;;4.03;73.51;100893.42;1856514;77;20950;-77
2021/03/22 00:11:58;;;;;;;29.77;19.10;;;;;;;4.04;73.39;100890.41;1855008;77;22032;-78
2021/03/22 00:14:28;;;;;;;36.68;21.00;;;;;;;4.03;73.59;100888.72;1856500;77;21108;-77
2021/03/22 00:16:58;;;;;;;40.70;21.23;;;;;;;4.04;73.59;100890.41;1855184;77;21149;-78
2021/03/22 00:19:32;;;;;;;38.38;22.13;;;;;;;4.03;73.66;100890.85;1856995;77;20918;-76
2021/03/22 00:22:01;;;;;;;37.30;21.17;;;;;;;4.02;73.62;100890.92;1855908;77;21126;-77
2021/03/22 00:24:29;;;;;;;37.70;21.00;;;;;;;3.99;73.61;100889.28;1857255;77;21600;-79
2021/03/22 00:29:45;;;;;;;35.85;20.30;;;;;;;4.01;73.77;100880.25;1968009;73;22688;-79
2021/03/22 00:32:13;;;;;;;32.40;19.25;;;;;;;3.98;73.83;100881.64;1937002;74;20952;-78
2021/03/22 00:34:43;;;;;;;34.63;20.90;;;;;;;3.99;74.02;100881.57;1936972;74;20972;-77
2021/03/22 00:37:11;;;;;;;32.23;19.42;;;;;;;3.99;73.89;100873.06;1937141;74;20991;-76
2021/03/22 00:39:40;;;;;;;33.60;19.90;;;;;;;4.00;73.98;100875.55;1937132;74;21438;-77
2021/03/22 00:42:09;;;;;;;34.25;20.52;;;;;;;4.00;73.89;100864.44;1937037;74;20908;-77
2021/03/22 00:44:37;;;;;;;32.33;19.32;;;;;;;3.97;73.85;100865.84;1937114;74;20909;-77
2021/03/22 00:47:05;;;;;;;35.78;20.10;;;;;;;3.95;74.04;100864.63;1937270;74;21513;-77
2021/03/22 00:49:35;;;;;;;30.75;18.92;;;;;;;3.98;74.12;100858.53;1937265;74;20944;-77
2021/03/22 00:52:07;;;;;;;31.60;18.67;;;;;;;3.99;74.16;100849.48;1937072;74;20960;-78
2021/03/22 00:54:36;;;;;;;30.45;18.62;;;;;;;4.02;74.19;100854.98;1937235;74;21549;-77
2021/03/22 00:57:06;;;;;;;32.05;18.50;;;;;;;4.02;74.09;100848.55;1937369;74;21019;-77
2021/03/22 00:59:34;;;;;;;28.30;18.32;;;;;;;4.01;74.15;100838.73;1937246;74;21165;-77
2021/03/22 01:02:04;;;;;;;28.25;16.93;;;;;;;3.99;73.94;100833.27;1937219;74;21004;-77
2021/03/22 01:04:33;;;;;;;30.32;18.25;;;;;;;3.95;73.91;100828.68;1937295;74;20877;-77
2021/03/22 01:07:01;;;;;;;32.53;18.15;;;;;;;3.93;74.01;100820.17;1937332;74;21502;-77
2021/03/22 01:09:29;;;;;;;30.85;19.17;;;;;;;3.93;74.12;100820.17;1936475;74;20923;-78
2021/03/22 01:11:57;;;;;;;29.20;18.42;;;;;;;3.93;74.18;100816.77;1936291;74;21220;-78
2021/03/22 01:14:25;;;;;;;31.27;18.37;;;;;;;3.91;74.19;100810.86;1936312;74;20952;-78
2021/03/22 01:16:53;;;;;;;34.13;20.32;;;;;;;3.88;74.14;100801.55;1936266;74;20873;-78
2021/03/22 01:19:26;;;;;;;32.53;19.87;;;;;;;3.86;74.13;100803.31;1936431;74;20885;-78
2021/03/22 01:21:57;;;;;;;;;;;;;;;3.85;74.24;100796.53;1939179;74;21172;-78
2021/03/22 01:24:27;;;;;;;33.00;18.98;;;;;;;3.85;74.32;100794.41;1936210;74;21355;-78
2021/03/22 01:26:59;;;;;;;31.00;17.60;;;;;;;3.84;74.44;100788.42;1936302;74;20916;-78
2021/03/22 01:29:34;;;;;;;31.15;17.07;;;;;;;3.84;74.44;100785.86;1936167;74;20927;-78
2021/03/22 01:32:09;;;;;;;27.55;16.73;;;;;;;3.82;74.52;100781.23;1936344;74;20916;-78
2021/03/22 01:34:37;;;;;;;25.97;16.37;;;;;;;3.82;74.78;100776.10;1936992;74;20861;-78
2021/03/22 01:37:07;;;;;;;23.25;16.02;;;;;;;3.81;75.19;100766.72;1937942;74;22092;-78
2021/03/22 01:39:36;;;;;;;23.05;15.20;;;;;;;3.78;75.38;100765.55;1936736;74;20924;-78
2021/03/22 01:42:27;;;;;;;20.65;14.30;;;;;;;3.74;75.74;100758.41;1936582;74;21490;-77
2021/03/22 01:44:59;;;;;;;22.77;14.30;;;;;;;3.74;76.00;100763.98;1936690;74;20904;-78
2021/03/22 01:47:32;;;;;;;21.55;14.45;;;;;;;3.70;76.23;100759.88;1901489;74;20916;-78
2021/03/22 01:50:09;;;;;;;;;;;;;;;3.66;76.40;100760.43;1939079;74;21164;-78
2021/03/22 01:52:40;;;;;;;20.40;13.13;;;;;;;3.63;76.56;100760.98;1936132;74;20141;-78
2021/03/22 01:55:12;;;;;;;19.85;13.88;;;;;;;3.53;76.81;100755.78;1936317;74;21466;-78
2021/03/22 01:57:42;;;;;;;19.35;11.97;;;;;;;3.50;77.02;100758.02;1936110;74;20939;-78
2021/03/22 02:00:29;;;;;;;17.07;11.65;;;;;;;3.47;76.92;100750.88;1935915;74;20903;-78
2021/03/22 02:03:04;;;;;;;20.17;12.68;;;;;;;3.39;76.85;100749.84;1935968;74;21411;-78
2021/03/22 02:05:34;;;;;;;17.42;12.05;;;;;;;3.29;77.00;100748.95;1935591;74;20912;-77
2021/03/22 02:08:09;;;;;;;15.28;11.22;;;;;;;3.20;77.36;100740.68;1935613;74;20944;-78
2021/03/22 02:10:37;;;;;;;16.70;11.70;;;;;;;3.14;77.50;100742.17;1930207;74;20916;-77
2021/03/22 02:13:07;;;;;;;15.95;11.60;;;;;;;3.08;77.87;100736.42;1935571;74;20861;-77
2021/03/22 02:15:38;;;;;;;14.73;11.05;;;;;;;3.08;78.45;100731.29;1935470;74;20916;-78
2021/03/22 02:18:31;;;;;;;16.80;11.88;;;;;;;3.08;78.80;100723.16;1900487;74;20928;-78
2021/03/22 02:21:22;;;;;;;15.60;10.82;;;;;;;3.09;78.84;100726.13;1935613;74;21475;-78
2021/03/22 02:24:36;;;;;;;14.75;10.68;;;;;;;3.10;79.01;100720.09;1895209;74;20908;-78
2021/03/22 02:27:46;;;;;;;15.18;10.78;;;;;;;3.09;79.33;100726.13;1935589;74;20924;-78
2021/03/22 02:30:57;;;;;;;14.75;9.98;;;;;;;3.09;79.66;100708.61;1939196;73;21158;-78
2021/03/22 02:33:56;;;;;;;16.62;11.38;;;;;;;3.14;79.72;100704.16;1939413;73;21526;-78
2021/03/22 02:36:50;;;;;;;15.35;11.22;;;;;;;3.18;79.69;100700.60;1939443;74;20916;-78
2021/03/22 02:39:20;;;;;;;15.32;10.98;;;;;;;3.23;79.75;100698.70;1939341;74;20900;-78
2021/03/22 02:41:52;;;;;;;14.93;10.10;;;;;;;3.27;79.38;100697.70;1939569;74;20884;-79
2021/03/22 02:44:28;;;;;;;15.55;10.63;;;;;;;3.23;79.19;100696.58;1939731;74;22036;-77
2021/03/22 02:46:58;;;;;;;15.20;10.28;;;;;;;3.18;79.43;100689.06;1939417;73;20917;-78
2021/03/22 02:49:29;;;;;;;15.78;10.70;;;;;;;3.18;80.05;100690.34;1939413;74;20873;-77
2021/03/22 02:52:29;;;;;;;13.15;10.45;;;;;;;3.20;80.37;100690.67;1939434;73;20889;-77
2021/03/22 02:55:11;;;;;;;14.63;10.55;;;;;;;3.23;80.48;100690.16;1939601;73;21485;-78
2021/03/22 02:57:59;;;;;;;14.15;10.40;;;;;;;3.23;80.41;100683.31;1939078;74;21525;-78
2021/03/22 03:00:42;;;;;;;12.80;9.55;;;;;;;3.26;80.60;100674.23;1908923;74;20943;-78
2021/03/22 03:03:13;;;;;;;13.90;10.43;;;;;;;3.30;80.72;100671.11;1938865;74;21478;-77
2021/03/22 03:05:49;;;;;;;17.07;10.20;;;;;;;3.35;80.70;100670.52;1939445;74;20880;-78
2021/03/22 03:08:18;;;;;;;15.32;11.38;;;;;;;3.40;80.66;100665.60;1939480;74;20881;-77
2021/03/22 03:10:47;;;;;;;13.45;9.53;;;;;;;3.46;80.30;100658.95;1939394;74;21233;-77
2021/03/22 03:13:15;;;;;;;14.30;9.93;;;;;;;3.51;80.07;100658.80;1939533;73;21485;-76
2021/03/22 03:15:43;;;;;;;13.38;10.30;;;;;;;3.54;79.88;100650.52;1939457;73;20920;-77
2021/03/22 03:18:11;;;;;;;13.98;10.35;;;;;;;3.57;79.92;100654.25;1939396;74;20889;-77
2021/03/22 03:20:39;;;;;;;12.55;9.80;;;;;;;3.59;79.86;100654.21;1939408;73;20849;-77
2021/03/22 03:23:07;;;;;;;15.72;10.53;;;;;;;3.59;79.84;100646.51;1939336;74;21453;-77
2021/03/22 03:25:35;;;;;;;13.93;10.30;;;;;;;3.59;79.73;100655.49;1939463;74;20952;-78
2021/03/22 03:28:03;;;;;;;13.85;10.55;;;;;;;3.55;79.76;100644.50;1941198;73;20987;-78
2021/03/22 03:30:33;;;;;;;13.78;10.13;;;;;;;3.53;79.89;100642.89;1943141;73;20904;-77
2021/03/22 03:33:01;;;;;;;15.10;10.58;;;;;;;3.49;80.05;100637.48;1943691;74;20885;-78
2021/03/22 03:35:31;;;;;;;21.73;11.08;;;;;;;3.46;80.25;100636.31;1943571;74;21105;-77
2021/03/22 03:37:59;;;;;;;17.35;10.63;;;;;;;3.47;80.43;100635.43;1943209;74;20941;-78
2021/03/22 03:40:30;;;;;;;16.17;11.12;;;;;;;3.49;80.56;100633.19;1943056;73;20869;-78
2021/03/22 03:42:58;;;;;;;14.70;10.63;;;;;;;3.47;80.30;100622.16;1943012;74;20904;-76
2021/03/22 03:45:29;;;;;;;13.55;9.93;;;;;;;3.47;80.30;100622.16;1943051;74;21335;-78
2021/03/22 03:47:59;;;;;;;17.90;10.93;;;;;;;3.45;80.57;100617.95;1938825;74;21336;-79
2021/03/22 03:50:29;;;;;;;11.95;9.80;;;;;;;3.43;80.55;100615.91;1943256;74;20885;-78
2021/03/22 03:52:57;;;;;;;19.52;13.50;;;;;;;3.41;80.64;100612.58;1943111;74;20908;-78
2021/03/22 03:55:28;;;;;;;19.62;13.25;;;;;;;3.38;80.86;100598.59;1943446;74;20865;-78
2021/03/22 03:57:57;;;;;;;21.90;15.53;;;;;;;3.37;81.19;100595.63;1941560;74;20896;-78
2021/03/22 04:00:28;;;;;;;23.27;15.63;;;;;;;3.37;81.37;100593.05;1939345;74;22104;-78
2021/03/22 04:02:57;;;;;;;18.77;14.47;;;;;;;3.36;81.43;100580.67;1939595;73;20908;-78
2021/03/22 04:05:27;;;;;;;18.75;13.10;;;;;;;3.37;81.40;100587.48;1939345;73;20979;-78
2021/03/22 04:07:55;;;;;;;22.00;12.95;;;;;;;3.41;81.19;100590.77;1939291;73;20901;-78
2021/03/22 04:10:24;;;;;;;20.32;14.18;;;;;;;3.43;81.15;100583.41;1939438;74;20905;-78
2021/03/22 04:12:52;;;;;;;18.70;12.65;;;;;;;3.46;81.14;100579.87;1939330;74;21180;-78
2021/03/22 04:15:20;;;;;;;21.30;11.53;;;;;;;3.48;81.14;100582.77;1939396;73;21474;-78
2021/03/22 04:17:48;;;;;;;17.92;11.08;;;;;;;3.50;81.06;100581.44;1939344;74;21467;-78
2021/03/22 04:20:17;;;;;;;24.18;12.82;;;;;;;3.54;81.15;100591.98;1939369;74;20908;-78
2021/03/22 04:22:45;;;;;;;14.28;10.40;;;;;;;3.57;81.01;100593.95;1939477;74;20928;-78
2021/03/22 04:25:14;;;;;;;19.55;12.45;;;;;;;3.59;80.75;100587.50;1939427;73;21170;-78
2021/03/22 04:27:43;;;;;;;18.75;13.30;;;;;;;3.58;80.30;100574.27;1939473;73;20916;-78
2021/03/22 04:30:12;;;;;;;22.05;14.43;;;;;;;3.56;80.21;100574.34;1943610;73;20912;-78
2021/03/22 04:32:40;;;;;;;23.20;15.68;;;;;;;3.56;80.24;100571.78;1945579;73;21016;-76
2021/03/22 04:35:11;;;;;;;31.15;16.85;;;;;;;3.59;80.32;100561.84;1945771;73;21442;-77
2021/03/22 04:37:39;;;;;;;36.73;18.30;;;;;;;3.61;80.21;100564.73;1945816;73;21556;-77
2021/03/22 04:40:08;;;;;;;33.83;20.68;;;;;;;3.62;79.86;100562.56;1945679;73;21038;-77
2021/03/22 04:42:36;;;;;;;38.78;21.40;;;;;;;3.60;79.73;100557.11;1945695;73;20951;-77
2021/03/22 04:45:06;;;;;;;35.13;20.15;;;;;;;3.59;79.77;100554.98;1945687;73;20904;-78
2021/03/22 04:47:34;;;;;;;29.72;17.30;;;;;;;3.60;79.69;100555.83;1945767;73;20924;-78
2021/03/22 04:50:05;;;;;;;23.50;15.72;;;;;;;3.62;79.52;100547.16;1945701;73;21178;-77
2021/03/22 04:52:33;;;;;;;26.57;16.20;;;;;;;3.65;79.07;100548.33;1945546;73;20920;-77
2021/03/22 04:55:02;;;;;;;21.82;15.03;;;;;;;3.64;78.76;100549.21;1945604;73;20909;-77
2021/03/22 04:57:32;;;;;;;24.47;15.63;;;;;;;3.64;78.51;100543.23;1945533;73;20891;-77
2021/03/22 05:00:01;;;;;;;21.00;14.13;;;;;;;3.63;78.54;100548.84;1945577;73;21017;-77
2021/03/22 05:02:29;;;;;;;17.17;13.08;;;;;;;3.66;78.35;100558.98;1945533;73;21175;-77
2021/03/22 05:04:59;;;;;;;17.98;13.43;;;;;;;3.69;78.09;100556.74;1945483;73;20955;-77
2021/03/22 05:07:27;;;;;;;27.32;16.27;;;;;;;3.71;78.05;100551.93;1945621;73;21459;-78
2021/03/22 05:09:56;;;;;;;26.40;16.15;;;;;;;3.75;78.10;100556.50;1945546;73;20884;-78
2021/03/22 05:12:24;;;;;;;25.52;14.70;;;;;;;3.77;78.10;100552.57;1945646;73;21481;-78
2021/03/22 05:14:52;;;;;;;29.27;15.70;;;;;;;3.78;78.10;100556.38;1945571;73;21178;-77
2021/03/22 05:17:20;;;;;;;23.40;15.25;;;;;;;3.80;78.25;100562.27;1945679;73;20861;-77
2021/03/22 05:19:48;;;;;;;20.57;13.50;;;;;;;3.83;78.29;100559.58;1945854;73;21447;-77
2021/03/22 05:22:16;;;;;;;33.48;16.12;;;;;;;3.86;78.50;100556.89;1945712;73;20893;-77
2021/03/22 05:24:44;;;;;;;30.45;17.40;;;;;;;3.90;78.51;100558.89;1945751;73;20900;-78
2021/03/22 05:27:13;;;;;;;31.23;19.45;;;;;;;3.93;78.69;100566.47;1945820;73;22098;-78
2021/03/22 05:29:41;;;;;;;33.75;22.27;;;;;;;3.94;78.98;100560.00;1943355;73;20912;-78
2021/03/22 05:32:30;;;;;;;36.03;23.18;;;;;;;3.99;79.16;100563.20;1939474;74;20896;-78
2021/03/22 05:34:58;;;;;;;40.43;23.38;;;;;;;4.03;79.30;100564.75;1939299;74;20880;-79
2021/03/22 05:37:27;;;;;;;43.17;22.73;;;;;;;4.08;79.32;100576.14;1939470;74;20908;-78
2021/03/22 05:39:55;;;;;;;38.75;22.15;;;;;;;4.11;79.43;100574.28;1939544;74;21171;-78
2021/03/22 05:42:40;;;;;;;36.90;20.97;;;;;;;4.15;79.37;100578.38;1939458;74;20884;-78
2021/03/22 05:45:39;;;;;;;32.25;18.70;;;;;;;4.19;79.27;100586.79;1939487;73;20900;-78
2021/03/22 05:48:31;;;;;;;31.93;17.52;;;;;;;4.21;79.35;100585.83;1939526;74;20896;-78
2021/03/22 05:51:28;;;;;;;37.85;17.48;;;;;;;4.24;79.25;100592.59;1939454;74;21015;-78
2021/03/22 05:54:20;;;;;;;25.17;16.65;;;;;;;4.25;79.19;100586.53;1931693;74;22102;-77
2021/03/22 05:57:23;;;;;;;57.08;23.52;;;;;;;4.32;79.32;100585.84;1939371;74;20861;-76
2021/03/22 06:00:05;;;;;;;33.33;22.85;;;;;;;4.33;79.17;100587.07;1939438;74;21043;-78
2021/03/22 06:03:01;;;;;;;37.38;19.57;;;;;;;4.38;79.37;100590.27;1939440;74;20888;-78
2021/03/22 06:06:09;;;;;;;23.50;16.40;;;;;;;4.43;79.23;100588.36;1939593;73;21481;-78
2021/03/22 06:08:57;;;;;;;29.10;17.15;;;;;;;4.49;79.30;100594.52;1939478;74;21217;-77
2021/03/22 06:11:37;;;;;;;23.52;15.18;;;;;;;4.57;79.27;100595.02;1937065;74;21051;-77
2021/03/22 06:14:23;;;;;;;26.68;14.75;;;;;;;4.64;78.86;100591.74;1939431;74;20911;-78
2021/03/22 06:17:08;;;;;;;22.73;13.93;;;;;;;4.76;78.78;100606.63;1908898;74;20881;-77
2021/03/22 06:19:47;;;;;;;27.65;14.47;;;;;;;4.87;78.05;100607.47;1939629;73;21445;-77
2021/03/22 06:22:22;;;;;;;18.17;12.35;;;;;;;4.95;77.33;100604.94;1938960;74;21425;-77
2021/03/22 06:24:51;;;;;;;20.72;12.75;;;;;;;5.03;76.90;100602.87;1939421;74;20908;-77
2021/03/22 06:27:20;;;;;;;22.02;13.13;;;;;;;5.15;76.35;100611.78;1939407;74;20989;-78
2021/03/22 06:29:49;;;;;;;21.10;13.70;;;;;;;5.23;75.56;100605.38;1941044;73;21425;-78
2021/03/22 06:32:26;;;;;;;38.20;14.53;;;;;;;5.32;75.21;100609.30;1915072;73;21026;-78
2021/03/22 06:35:00;;;;;;;36.33;14.23;;;;;;;5.40;74.38;100606.36;1945799;73;21353;-79
2021/03/22 06:37:32;;;;;;;22.93;14.00;;;;;;;5.44;73.90;100604.03;1945543;73;20904;-78
2021/03/22 06:40:28;;;;;;;27.13;13.85;;;;;;;5.48;73.51;100610.27;1945930;73;20900;-78
2021/03/22 06:43:18;;;;;;;24.20;14.45;;;;;;;5.57;73.33;100612.87;1945629;73;21019;-79
2021/03/22 06:46:09;;;;;;;22.17;13.20;;;;;;;5.72;73.15;100610.86;1945616;73;20911;-79
2021/03/22 06:48:38;;;;;;;25.90;15.00;;;;;;;5.89;72.09;100608.81;1945779;73;22115;-79
2021/03/22 06:51:16;;;;;;;24.43;15.45;;;;;;;6.02;71.00;100600.44;1945665;73;21094;-79
2021/03/22 06:53:51;;;;;;;26.52;16.42;;;;;;;6.14;70.35;100599.84;1945602;73;20927;-79
2021/03/22 06:56:33;;;;;;;26.85;15.53;;;;;;;6.31;70.20;100595.16;1945532;73;21443;-78
2021/03/22 06:59:18;;;;;;;28.52;15.28;;;;;;;6.47;69.49;100588.33;1945829;73;21022;-78
2021/03/22 07:01:50;;;;;;;28.52;15.75;;;;;;;6.63;68.02;100584.06;1945212;73;21178;-79
2021/03/22 07:04:32;;;;;;;20.68;13.48;;;;;;;6.69;66.96;100579.87;1945611;73;20896;-78
2021/03/22 07:07:24;;;;;;;24.98;14.70;;;;;;;6.76;66.28;100588.98;1945386;73;21556;-79
2021/03/22 07:09:59;;;;;;;28.83;14.80;;;;;;;6.83;65.72;100583.02;1944831;73;20967;-78
2021/03/22 07:12:37;;;;;;;22.77;13.98;;;;;;;6.94;65.09;100585.89;1945124;73;20920;-79
2021/03/22 07:15:32;;;;;;;18.52;13.00;;;;;;;7.06;63.93;100577.95;1936984;73;22227;-81
2021/03/22 07:18:23;;;;;;;22.85;12.88;;;;;;;7.12;63.77;100582.33;1929205;74;20918;-81
2021/03/22 07:21:09;;;;;;;19.10;13.38;;;;;;;7.21;63.67;100581.03;1919570;73;21499;-81
2021/03/22 07:23:54;;;;;;;17.07;11.35;;;;;;;7.28;63.36;100575.89;1835260;78;21468;-80
2021/03/22 07:26:57;;;;;;;20.05;12.50;;;;;;;7.32;62.31;100579.53;1861413;77;21071;-81
2021/03/22 07:30:00;;;;;;;17.30;12.00;;;;;;;7.39;61.93;100578.74;1873488;76;21230;-79
2021/03/22 07:32:51;;;;;;;30.25;12.45;;;;;;;7.45;61.60;100574.53;1864800;77;21504;-79
2021/03/22 07:36:04;;;;;;;20.92;12.20;;;;;;;7.44;61.22;100577.57;1850416;76;20985;-79
2021/03/22 07:39:22;;;;;;;16.82;11.80;;;;;;;7.37;61.62;100578.81;1871079;75;20863;-80
2021/03/22 07:42:27;;;;;;;15.90;9.70;;;;;;;7.32;61.88;100570.95;1834825;78;21083;-80
2021/03/22 07:45:31;;;;;;;17.15;10.28;;;;;;;7.27;60.76;100573.80;1904597;74;21183;-80
2021/03/22 07:48:26;;;;;;;16.00;10.48;;;;;;;7.31;59.79;100573.14;1861386;76;21145;-79
2021/03/22 07:51:43;;;;;;;13.72;10.23;;;;;;;7.33;59.44;100570.88;1856206;76;21503;-79
2021/03/22 07:54:30;;;;;;;23.95;11.28;;;;;;;7.31;59.05;100562.37;1897522;75;20911;-79
2021/03/22 07:57:30;;;;;;;17.98;11.80;;;;;;;7.28;59.19;100555.24;1904600;75;21489;-77
2021/03/22 08:00:20;;;;;;;16.42;10.90;;;;;;;7.22;60.01;100553.83;1904474;75;21180;-80
2021/03/22 08:03:10;;;;;;;15.70;10.95;;;;;;;7.23;60.49;100550.34;1891713;75;21508;-77
2021/03/22 08:06:13;;;;;;;28.90;11.10;;;;;;;7.24;59.47;100546.02;1865048;76;21011;-80
2021/03/22 08:08:52;;;;;;;23.85;11.63;;;;;;;7.27;59.00;100539.41;1856670;76;21526;-80
2021/03/22 08:11:50;;;;;;;18.12;12.00;;;;;;;7.33;59.06;100535.20;1904270;75;20900;-80
2021/03/22 08:14:33;;;;;;;16.05;11.03;;;;;;;7.36;59.11;100536.31;1875242;75;22089;-78
2021/03/22 08:17:40;;;;;;;20.60;11.60;;;;;;;7.42;58.34;100530.36;1869043;76;21483;-81
2021/03/22 08:20:33;;;;;;;18.17;10.43;;;;;;;7.38;57.05;100526.73;1884188;74;21112;-80
2021/03/22 08:23:21;;;;;;;15.53;10.60;;;;;;;7.32;57.30;100518.87;1854627;76;21579;-80
2021/03/22 08:25:52;;;;;;;15.23;10.35;;;;;;;7.37;57.28;100505.24;1862294;76;21055;-81
2021/03/22 08:28:37;;;;;;;15.15;10.68;;;;;;;7.51;56.98;100506.23;1863193;76;21129;-78
2021/03/22 08:31:29;;;;;;;15.32;9.85;;;;;;;7.61;56.27;100499.64;1870974;75;20921;-82
2021/03/22 08:34:09;;;;;;;15.98;10.50;;;;;;;7.67;55.46;100494.95;1904663;75;20963;-81
2021/03/22 08:37:04;;;;;;;15.25;10.70;;;;;;;7.60;55.35;100485.05;1880560;75;20934;-81
2021/03/22 08:39:48;;;;;;;18.87;13.28;;;;;;;7.54;55.47;100492.69;1811901;75;21084;-81
2021/03/22 08:42:27;;;;;;;14.28;10.65;;;;;;;7.47;56.56;100485.39;1903997;75;21192;-81
2021/03/22 08:45:24;;;;;;;12.33;9.98;;;;;;;7.49;56.21;100480.96;1864256;76;21081;-82
2021/03/22 08:50:57;;;;;;;19.92;12.03;;;;;;;7.45;55.90;100474.68;1955207;73;22490;-84
2021/03/22 08:53:36;;;;;;;13.40;9.60;;;;;;;7.37;57.21;100472.16;1921124;74;21362;-84
2021/03/22 08:56:20;;;;;;;8.58;5.85;;;;;;;7.15;54.51;100475.53;1920109;73;21168;-80
2021/03/22 08:58:48;;;;;;;13.93;8.33;;;;;;;6.91;51.17;100467.39;1916169;74;21087;-83
2021/03/22 09:01:35;;;;;;;14.98;8.13;;;;;;;6.73;51.79;100467.09;1892853;73;21020;-82
2021/03/22 09:04:22;;;;;;;9.50;7.92;;;;;;;6.52;52.64;100467.75;1886143;73;21063;-80
2021/03/22 09:07:15;;;;;;;13.75;8.30;;;;;;;6.25;51.29;100462.27;1892546;73;21118;-81
2021/03/22 09:09:45;;;;;;;12.82;8.00;;;;;;;6.11;52.44;100465.19;1914739;74;21175;-81
2021/03/22 09:12:35;;;;;;;9.68;7.28;;;;;;;6.05;54.88;100462.92;1920594;74;21044;-79
2021/03/22 09:15:17;;;;;;;13.48;8.10;;;;;;;6.02;55.02;100465.66;1912788;74;21557;-79
2021/03/22 09:18:05;;;;;;;8.60;7.17;;;;;;;6.03;55.64;100466.05;1892804;73;21177;-80
2021/03/22 09:20:48;;;;;;;9.80;6.72;;;;;;;6.07;55.10;100463.22;1904313;73;21127;-82
2021/03/22 09:23:33;;;;;;;10.18;6.90;;;;;;;6.10;55.56;100464.80;1824119;76;21222;-79
2021/03/22 09:26:05;;;;;;;13.70;6.90;;;;;;;6.12;55.44;100463.84;1818259;77;21641;-82
2021/03/22 09:28:40;;;;;;;7.85;6.60;;;;;;;6.16;55.61;100464.48;1825961;78;20934;-86
2021/03/22 09:31:20;;;;;;;8.33;7.08;;;;;;;6.16;54.78;100469.19;1825872;77;21174;-81
2021/03/22 09:34:15;;;;;;;8.85;6.80;;;;;;;6.17;56.46;100473.44;1825995;78;21807;-79
2021/03/22 09:36:47;;;;;;;14.85;8.13;;;;;;;6.13;57.00;100477.08;1828180;77;21184;-87
2021/03/22 09:39:24;;;;;;;11.08;7.70;;;;;;;6.06;57.89;100471.84;1826283;78;21562;-82
2021/03/22 09:42:15;;;;;;;10.25;8.00;;;;;;;5.92;58.22;100472.17;1825906;77;21131;-83
2021/03/22 09:45:00;;;;;;;12.50;8.95;;;;;;;5.78;59.81;100474.94;1826862;77;20997;-81
2021/03/22 09:47:40;;;;;;;10.93;8.38;;;;;;;5.77;61.08;100472.01;1837120;75;21183;-82
2021/03/22 09:50:24;;;;;;;13.30;8.73;;;;;;;5.75;61.91;100467.81;1846706;75;21185;-80
2021/03/22 09:52:59;;;;;;;13.95;9.50;;;;;;;5.69;63.24;100468.13;1826137;77;21578;-83
2021/03/22 09:55:34;;;;;;;13.85;9.58;;;;;;;5.58;64.29;100475.10;1826536;78;21068;-82
2021/03/22 09:58:28;;;;;;;11.45;9.53;;;;;;;5.42;64.58;100474.17;1826733;78;21487;-80
2021/03/22 10:01:29;;;;;;;10.98;9.00;;;;;;;5.25;64.69;100474.13;1826218;78;26770;-81
2021/03/22 10:04:23;;;;;;;13.10;9.35;;;;;;;5.02;66.48;100481.62;1826175;78;22468;-86
2021/03/22 10:07:16;;;;;;;11.05;8.65;;;;;;;4.79;69.43;100482.66;1826760;77;21132;-80
2021/03/22 10:10:07;;;;;;;12.58;8.95;;;;;;;4.60;70.85;100484.38;1868403;76;21473;-80
2021/03/22 10:12:41;;;;;;;16.52;8.98;;;;;;;4.52;71.84;100483.06;1823287;78;20977;-80
2021/03/22 10:15:26;;;;;;;11.70;8.63;;;;;;;4.49;72.74;100481.91;1856146;77;21076;-80
2021/03/22 10:18:05;;;;;;;14.30;9.43;;;;;;;4.43;73.96;100483.02;1864315;75;21176;-82
2021/03/22 10:20:47;;;;;;;11.78;8.85;;;;;;;4.43;74.33;100488.16;1825051;77;21049;-78
2021/03/22 10:23:26;;;;;;;13.78;9.68;;;;;;;4.46;74.85;100488.47;1831864;77;21170;-82
2021/03/22 10:26:36;;;;;;;12.82;9.98;;;;;;;4.45;75.30;100481.21;1859713;77;21039;-78
2021/03/22 10:29:25;;;;;;;13.72;10.18;;;;;;;4.35;75.99;100488.93;1860250;76;21181;-80
2021/03/22 10:32:15;;;;;;;14.47;9.28;;;;;;;4.21;77.67;100491.27;1859520;77;22045;-80
2021/03/22 10:34:52;;;;;;;13.20;9.00;;;;;;;4.10;77.88;100486.58;1859671;77;20933;-77
2021/03/22 10:37:29;;;;;;;17.67;13.40;;;;;;;3.87;78.99;100478.16;1860033;77;20949;-78
2021/03/22 10:40:08;;;;;;;31.17;19.27;;;;;;;3.70;80.71;100477.11;1860300;77;21000;-76
2021/03/22 10:42:41;;;;;;;23.30;15.08;;;;;;;3.63;82.10;100473.59;1859216;76;21095;-76
2021/03/22 10:45:27;;;;;;;16.00;11.00;;;;;;;3.63;83.73;100470.59;1859091;77;22381;-77
2021/03/22 10:47:57;;;;;;;13.40;10.25;;;;;;;3.58;84.40;100474.21;1859340;76;21194;-78
2021/03/22 10:50:36;;;;;;;15.45;10.95;;;;;;;3.54;85.75;100457.30;1857218;77;21467;-77
2021/03/22 10:53:14;;;;;;;16.55;12.18;;;;;;;3.55;86.38;100455.09;1855853;77;21012;-78
2021/03/22 10:55:48;;;;;;;16.95;11.83;;;;;;;3.58;87.22;100456.25;1855432;77;20929;-75
2021/03/22 10:58:28;;;;;;;15.60;11.10;;;;;;;3.59;87.16;100461.78;1848280;77;22080;-76
2021/03/22 11:01:03;;;;;;;14.75;10.55;;;;;;;3.56;87.52;100452.92;1853060;76;21063;-74
2021/03/22 11:03:34;;;;;;;15.88;11.75;;;;;;;3.48;87.67;100449.81;1824328;76;21123;-76
2021/03/22 11:06:12;;;;;;;18.23;12.05;;;;;;;3.44;88.34;100455.55;1822173;78;21027;-77
2021/03/22 11:08:43;;;;;;;20.17;12.47;;;;;;;3.44;88.46;100445.29;1822135;78;21035;-76
2021/03/22 11:11:18;;;;;;;17.65;12.07;;;;;;;3.42;89.14;100453.47;1821371;77;21269;-74
2021/03/22 11:13:49;;;;;;;16.17;12.65;;;;;;;3.40;89.87;100444.17;1793622;77;21254;-77
2021/03/22 11:16:26;;;;;;;20.52;14.35;;;;;;;3.33;89.75;100442.74;1823083;77;21004;-78
2021/03/22 11:18:55;;;;;;;16.57;13.75;;;;;;;3.29;90.59;100445.06;1828843;77;20917;-78
2021/03/22 11:21:26;;;;;;;15.65;12.30;;;;;;;3.21;90.38;100441.52;1822267;77;21494;-75
2021/03/22 11:23:57;;;;;;;17.75;14.25;;;;;;;3.25;91.39;100446.08;1822237;78;21193;-77
2021/03/22 11:26:28;;;;;;;16.93;13.15;;;;;;;3.25;91.50;100436.66;1822133;78;20940;-77
2021/03/22 11:29:18;;;;;;;17.32;12.80;;;;;;;3.26;91.69;100437.02;1822304;78;21103;-75
2021/03/22 11:31:49;;;;;;;18.77;13.72;;;;;;;3.23;91.60;100436.30;1822100;78;20925;-74
2021/03/22 11:34:29;;;;;;;18.40;14.00;;;;;;;3.21;92.11;100436.38;1822391;77;21047;-77
2021/03/22 11:37:11;;;;;;;20.97;14.75;;;;;;;3.23;92.00;100436.30;1822187;78;21640;-76
2021/03/22 11:39:39;;;;;;;22.90;14.17;;;;;;;3.14;92.30;100433.66;1830179;78;21507;-77
2021/03/22 11:42:18;;;;;;;18.30;13.05;;;;;;;3.11;92.66;100438.91;1822032;77;21191;-78
2021/03/22 11:44:46;;;;;;;17.25;12.28;;;;;;;3.13;92.80;100436.67;1822382;78;21046;-77
2021/03/22 11:47:45;;;;;;;18.25;12.88;;;;;;;3.14;93.02;100433.22;1793204;78;21230;-75
2021/03/22 11:50:31;;;;;;;19.52;14.38;;;;;;;3.18;93.43;100432.22;1824924;78;21105;-76
2021/03/22 11:53:08;;;;;;;17.55;13.38;;;;;;;3.30;93.99;100423.19;1808448;79;21023;-76
2021/03/22 11:55:41;;;;;;;19.65;14.03;;;;;;;3.41;93.56;100427.45;1828424;78;21299;-76
2021/03/22 11:58:46;;;;;;;19.50;13.90;;;;;;;3.39;93.13;100425.38;1843476;77;21609;-75
2021/03/22 12:01:26;;;;;;;16.80;13.35;;;;;;;3.32;93.02;100418.83;1842979;77;21470;-75
2021/03/22 12:04:08;;;;;;;16.75;12.63;;;;;;;3.34;93.75;100423.91;1841191;77;21529;-75
2021/03/22 12:07:01;;;;;;;18.60;13.05;;;;;;;3.38;93.84;100424.18;1841222;77;21241;-75
2021/03/22 12:09:30;;;;;;;20.37;14.43;;;;;;;3.38;93.38;100422.45;1842455;77;21055;-75
2021/03/22 12:12:02;;;;;;;16.57;12.40;;;;;;;3.35;92.99;100417.89;1841995;77;21683;-76
2021/03/22 12:14:31;;;;;;;15.78;12.10;;;;;;;3.29;93.17;100417.66;1842262;77;21011;-76
2021/03/22 12:17:07;;;;;;;18.35;13.00;;;;;;;3.27;93.25;100415.63;1842470;77;21216;-77
2021/03/22 12:19:39;;;;;;;17.95;12.65;;;;;;;3.23;93.54;100408.10;1841580;77;21169;-75